createdAt,value
2023-01-09T00:01:22.212Z,9.20
2023-01-09T00:03:49.240Z,9.20
2023-01-09T00:06:16.992Z,9.20
2023-01-09T00:08:43.917Z,9.20
2023-01-09T00:11:10.945Z,9.20
2023-01-09T00:13:38.656Z,9.20
2023-01-09T00:16:07.207Z,9.20
2023-01-09T00:18:34.982Z,9.20
2023-01-09T00:21:07.152Z,9.20
2023-01-09T00:23:34.581Z,9.20
2023-01-09T00:26:11.682Z,9.20
2023-01-09T00:28:39.027Z,9.20
2023-01-09T00:31:07.609Z,9.20
2023-01-09T00:33:37.214Z,9.20
2023-01-09T00:36:04.487Z,9.20
2023-01-09T00:38:31.682Z,9.20
2023-01-09T00:40:59.624Z,9.20
2023-01-09T00:43:31.186Z,9.20
2023-01-09T00:46:00.084Z,9.20
2023-01-09T00:48:29.705Z,9.20
2023-01-09T00:50:59.439Z,9.30
2023-01-09T00:53:33.336Z,9.20
2023-01-09T00:56:05.174Z,9.30
2023-01-09T00:58:33.627Z,9.30
2023-01-09T01:01:01.441Z,9.30
2023-01-09T01:03:28.525Z,9.30
2023-01-09T01:06:14.014Z,9.30
2023-01-09T01:08:40.995Z,9.30
2023-01-09T01:11:10.393Z,9.30
2023-01-09T01:13:38.814Z,9.30
2023-01-09T01:16:08.046Z,9.30
2023-01-09T01:18:35.185Z,9.30
2023-01-09T01:21:09.659Z,9.30
2023-01-09T01:23:37.618Z,9.30
2023-01-09T01:26:15.823Z,9.30
2023-01-09T01:28:43.526Z,9.40
2023-01-09T01:31:16.974Z,9.40
2023-01-09T01:33:43.950Z,9.40
2023-01-09T01:36:11.472Z,9.40
2023-01-09T01:38:38.478Z,9.40
2023-01-09T01:41:05.624Z,9.40
2023-01-09T01:43:59.717Z,9.40
2023-01-09T01:46:30.543Z,9.40
2023-01-09T01:49:12.016Z,9.40
2023-01-09T01:51:46.880Z,9.40
2023-01-09T01:54:20.563Z,9.40
2023-01-09T01:56:53.794Z,9.40
2023-01-09T01:59:23.585Z,9.40
2023-01-09T02:01:54.503Z,9.40
2023-01-09T02:04:21.801Z,9.40
2023-01-09T02:06:51.184Z,9.40
2023-01-09T02:09:20.553Z,9.40
2023-01-09T02:11:49.595Z,9.40
2023-01-09T02:14:16.928Z,9.40
2023-01-09T02:16:45.637Z,9.40
2023-01-09T02:19:21.864Z,9.40
2023-01-09T02:22:06.879Z,9.50
2023-01-09T02:24:55.539Z,9.50
2023-01-09T02:27:54.431Z,9.50
2023-01-09T02:30:42.996Z,9.50
2023-01-09T02:33:18.875Z,9.50
2023-01-09T02:35:52.495Z,9.50
2023-01-09T02:38:28.358Z,9.50
2023-01-09T02:41:16.669Z,9.50
2023-01-09T02:43:43.582Z,9.50
2023-01-09T02:46:20.671Z,9.50
2023-01-09T02:48:52.561Z,9.50
2023-01-09T02:51:48.574Z,9.50
2023-01-09T02:54:43.560Z,9.50
2023-01-09T02:57:25.943Z,9.50
2023-01-09T03:00:02.651Z,9.50
2023-01-09T03:02:48.098Z,9.50
2023-01-09T03:05:20.904Z,9.60
2023-01-09T03:07:56.017Z,9.60
2023-01-09T03:10:39.403Z,9.60
2023-01-09T03:13:10.717Z,9.60
2023-01-09T03:15:40.532Z,9.60
2023-01-09T03:18:10.707Z,9.60
2023-01-09T03:20:39.153Z,9.60
2023-01-09T03:23:07.567Z,9.70
2023-01-09T03:25:35.133Z,9.70
2023-01-09T03:28:07.949Z,9.70
2023-01-09T03:30:36.823Z,9.70
2023-01-09T03:33:03.878Z,9.70
2023-01-09T03:35:30.869Z,9.70
2023-01-09T03:37:59.177Z,9.70
2023-01-09T03:40:26.269Z,9.70
2023-01-09T03:42:53.170Z,9.70
2023-01-09T03:45:20.177Z,9.80
2023-01-09T03:47:47.021Z,9.80
2023-01-09T03:50:13.998Z,9.80
2023-01-09T03:52:41.470Z,9.80
2023-01-09T03:55:08.783Z,9.80
2023-01-09T03:57:35.872Z,9.90
2023-01-09T04:00:04.311Z,9.90
2023-01-09T04:02:39.138Z,9.90
2023-01-09T04:05:06.731Z,9.80
2023-01-09T04:07:33.786Z,9.80
2023-01-09T04:10:00.698Z,9.80
2023-01-09T04:12:27.748Z,9.80
2023-01-09T04:14:54.584Z,9.80
2023-01-09T04:17:21.563Z,9.70
2023-01-09T04:19:48.466Z,9.70
2023-01-09T04:22:15.369Z,9.70
2023-01-09T04:24:42.410Z,9.80
2023-01-09T04:27:09.414Z,9.70
2023-01-09T04:29:36.282Z,9.70
2023-01-09T04:32:03.393Z,9.70
2023-01-09T04:34:30.259Z,9.70
2023-01-09T04:36:57.795Z,9.70
2023-01-09T04:39:24.686Z,9.70
2023-01-09T04:41:51.771Z,9.70
2023-01-09T04:44:21.098Z,9.70
2023-01-09T04:46:48.579Z,9.70
2023-01-09T04:49:15.742Z,9.70
2023-01-09T04:51:42.635Z,9.70
2023-01-09T04:54:10.165Z,9.70
2023-01-09T04:56:37.674Z,9.70
2023-01-09T04:59:05.872Z,9.70
2023-01-09T05:01:33.303Z,9.70
2023-01-09T05:04:01.010Z,9.70
2023-01-09T05:06:28.099Z,9.70
2023-01-09T05:08:56.667Z,9.70
2023-01-09T05:11:25.478Z,9.70
2023-01-09T05:13:53.576Z,9.70
2023-01-09T05:16:21.646Z,9.70
2023-01-09T05:18:48.670Z,9.70
2023-01-09T05:21:15.800Z,9.70
2023-01-09T05:23:42.725Z,9.70
2023-01-09T05:26:09.618Z,9.70
2023-01-09T05:28:36.586Z,9.70
2023-01-09T05:31:03.458Z,9.70
2023-01-09T05:33:30.582Z,9.70
2023-01-09T05:35:57.579Z,9.70
2023-01-09T05:38:24.722Z,9.70
2023-01-09T05:40:51.598Z,9.70
2023-01-09T05:43:18.531Z,9.70
2023-01-09T05:45:45.496Z,9.70
2023-01-09T05:48:12.427Z,9.70
2023-01-09T05:50:39.363Z,9.70
2023-01-09T05:53:06.833Z,9.70
2023-01-09T05:55:34.144Z,9.70
2023-01-09T05:58:04.370Z,9.70
2023-01-09T06:00:31.719Z,9.70
2023-01-09T06:02:59.373Z,9.80
2023-01-09T06:05:26.611Z,9.70
2023-01-09T06:07:53.618Z,9.80
2023-01-09T06:10:20.840Z,9.70
2023-01-09T06:12:50.137Z,9.70
2023-01-09T06:15:18.149Z,9.70
2023-01-09T06:17:45.053Z,9.70
2023-01-09T06:20:12.250Z,9.70
2023-01-09T06:22:39.474Z,9.70
2023-01-09T06:25:06.818Z,9.70
2023-01-09T06:27:33.932Z,9.70
2023-01-09T06:30:00.850Z,9.70
2023-01-09T06:32:27.949Z,9.70
2023-01-09T06:34:54.979Z,9.60
2023-01-09T06:37:21.999Z,9.70
2023-01-09T06:39:49.201Z,9.60
2023-01-09T06:42:16.254Z,9.70
2023-01-09T06:44:43.426Z,9.70
2023-01-09T06:47:10.626Z,9.70
2023-01-09T06:49:37.752Z,9.70
2023-01-09T06:52:07.437Z,9.70
2023-01-09T06:54:35.232Z,9.70
2023-01-09T06:57:02.266Z,9.70
2023-01-09T06:59:29.233Z,9.60
2023-01-09T07:01:56.305Z,9.60
2023-01-09T07:04:23.564Z,9.60
2023-01-09T07:06:50.725Z,9.50
2023-01-09T07:09:17.695Z,9.50
2023-01-09T07:11:44.689Z,9.50
2023-01-09T07:14:11.764Z,9.40
2023-01-09T07:16:38.968Z,9.40
2023-01-09T07:19:06.032Z,9.40
2023-01-09T07:21:33.074Z,9.40
2023-01-09T07:24:00.281Z,9.30
2023-01-09T07:26:27.284Z,9.30
2023-01-09T07:28:54.804Z,9.30
2023-01-09T07:31:22.244Z,9.30
2023-01-09T07:33:49.330Z,9.30
2023-01-09T07:36:16.540Z,9.30
2023-01-09T07:38:43.547Z,9.20
2023-01-09T07:41:10.966Z,9.20
2023-01-09T07:43:39.284Z,9.20
2023-01-09T07:46:06.773Z,9.20
2023-01-09T07:48:34.585Z,9.20
2023-01-09T07:51:01.935Z,9.20
2023-01-09T07:53:29.216Z,9.20
2023-01-09T07:55:56.338Z,9.20
2023-01-09T07:58:23.564Z,9.20
2023-01-09T08:00:51.166Z,9.20
2023-01-09T08:03:18.393Z,9.20
2023-01-09T08:05:46.272Z,9.20
2023-01-09T08:08:15.021Z,9.20
2023-01-09T08:10:42.252Z,9.20
2023-01-09T08:13:09.210Z,9.20
2023-01-09T08:15:36.466Z,9.20
2023-01-09T08:18:03.563Z,9.20
2023-01-09T08:20:30.626Z,9.20
2023-01-09T08:22:57.828Z,9.30
2023-01-09T08:25:24.904Z,9.30
2023-01-09T08:27:52.049Z,9.30
2023-01-09T08:30:19.619Z,9.30
2023-01-09T08:32:51.701Z,9.40
2023-01-09T08:35:19.301Z,9.40
2023-01-09T08:37:49.372Z,9.40
2023-01-09T08:40:18.012Z,9.50
2023-01-09T08:43:03.997Z,9.50
2023-01-09T08:45:51.000Z,9.50
2023-01-09T08:48:18.112Z,9.60
2023-01-09T08:50:45.116Z,9.70
2023-01-09T08:53:12.378Z,9.70
2023-01-09T08:55:39.448Z,9.70
2023-01-09T08:58:06.493Z,9.80
2023-01-09T09:00:33.524Z,9.80
2023-01-09T09:03:01.825Z,9.80
2023-01-09T09:05:30.940Z,9.80
2023-01-09T09:07:59.077Z,9.90
2023-01-09T09:10:28.566Z,9.90
2023-01-09T09:12:57.917Z,9.90
2023-01-09T09:15:26.697Z,9.90
2023-01-09T09:17:57.970Z,9.90
2023-01-09T09:20:28.303Z,10.00
2023-01-09T09:22:55.683Z,10.00
2023-01-09T09:25:23.053Z,10.00
2023-01-09T09:27:50.650Z,10.00
2023-01-09T09:30:19.787Z,10.00
2023-01-09T09:32:47.001Z,10.00
2023-01-09T09:35:14.411Z,10.00
2023-01-09T09:37:42.056Z,10.00
2023-01-09T09:40:47.773Z,10.00
2023-01-09T09:43:59.925Z,10.00
2023-01-09T09:46:34.800Z,10.10
2023-01-09T09:49:13.846Z,10.10
2023-01-09T09:52:16.454Z,10.10
2023-01-09T09:54:51.268Z,10.10
2023-01-09T09:57:23.336Z,10.10
2023-01-09T09:59:51.637Z,10.20
2023-01-09T10:02:42.964Z,10.20
2023-01-09T10:05:18.986Z,10.20
2023-01-09T10:07:51.006Z,10.30
2023-01-09T10:10:44.502Z,10.30
2023-01-09T10:13:36.637Z,10.40
2023-01-09T10:16:40.531Z,10.50
2023-01-09T10:19:20.246Z,10.60
2023-01-09T10:21:59.251Z,10.70
2023-01-09T10:24:50.788Z,10.70
2023-01-09T10:27:30.332Z,10.80
2023-01-09T10:30:16.973Z,10.90
2023-01-09T10:32:56.606Z,10.90
2023-01-09T10:35:55.770Z,11.00
2023-01-09T10:38:32.225Z,11.10
2023-01-09T10:41:10.568Z,11.10
2023-01-09T10:43:51.326Z,11.10
2023-01-09T10:46:31.412Z,11.20
2023-01-09T10:49:05.887Z,11.20
2023-01-09T10:51:49.328Z,11.30
2023-01-09T10:54:21.595Z,11.30
2023-01-09T10:56:56.426Z,11.30
2023-01-09T10:59:24.713Z,11.30
2023-01-09T11:01:51.796Z,11.40
2023-01-09T11:04:36.106Z,11.40
2023-01-09T11:07:26.433Z,11.40
2023-01-09T11:10:13.272Z,11.40
2023-01-09T11:12:40.930Z,11.40
2023-01-09T11:15:17.242Z,11.50
2023-01-09T11:17:45.529Z,11.50
2023-01-09T11:20:25.927Z,11.50
2023-01-09T11:22:55.748Z,11.50
2023-01-09T11:25:25.786Z,11.60
2023-01-09T11:28:01.964Z,11.60
2023-01-09T11:30:36.665Z,11.60
2023-01-09T11:33:25.125Z,11.60
2023-01-09T11:35:59.911Z,11.60
2023-01-09T11:38:27.525Z,11.60
2023-01-09T11:41:03.087Z,11.60
2023-01-09T11:43:38.961Z,11.60
2023-01-09T11:46:07.308Z,11.60
2023-01-09T11:48:39.195Z,11.60
2023-01-09T11:51:24.735Z,11.60
2023-01-09T11:54:13.084Z,11.60
2023-01-09T11:56:40.520Z,11.70
2023-01-09T11:59:29.006Z,11.70
2023-01-09T12:02:14.113Z,11.60
2023-01-09T12:04:55.434Z,11.60
2023-01-09T12:07:38.547Z,11.60
2023-01-09T12:10:45.909Z,11.60
2023-01-09T12:13:39.160Z,11.60
2023-01-09T12:16:32.756Z,11.60
2023-01-09T12:19:41.961Z,11.70
2023-01-09T12:22:21.120Z,11.80
2023-01-09T12:25:09.757Z,11.80
2023-01-09T12:27:55.106Z,11.90
2023-01-09T12:30:22.360Z,12.00
2023-01-09T12:33:07.728Z,12.00
2023-01-09T12:36:12.819Z,12.00
2023-01-09T12:38:42.912Z,12.00
2023-01-09T12:41:20.136Z,12.00
2023-01-09T12:43:53.465Z,11.90
2023-01-09T12:46:22.998Z,12.00
2023-01-09T12:49:05.401Z,12.00
2023-01-09T12:51:55.234Z,12.00
2023-01-09T12:54:39.632Z,12.10
2023-01-09T12:57:21.469Z,12.20
2023-01-09T12:59:52.552Z,12.20
2023-01-09T13:02:32.623Z,12.20
2023-01-09T13:05:02.527Z,12.20
2023-01-09T13:07:43.427Z,12.20
2023-01-09T13:10:31.027Z,12.20
2023-01-09T13:13:00.423Z,12.10
2023-01-09T13:15:42.232Z,12.10
2023-01-09T13:18:14.155Z,12.10
2023-01-09T13:20:45.819Z,12.10
2023-01-09T13:23:29.571Z,12.00
2023-01-09T13:26:00.417Z,12.00
2023-01-09T13:28:34.325Z,12.00
2023-01-09T13:31:37.259Z,11.90
2023-01-09T13:34:17.716Z,11.90
2023-01-09T13:36:54.759Z,11.90
2023-01-09T13:39:35.225Z,11.90
2023-01-09T13:42:26.367Z,11.80
2023-01-09T13:44:56.780Z,11.80
2023-01-09T13:47:28.024Z,11.80
2023-01-09T13:50:11.696Z,11.80
2023-01-09T13:52:43.193Z,11.80
2023-01-09T13:55:16.197Z,11.80
2023-01-09T13:58:13.763Z,11.80
2023-01-09T14:00:44.385Z,11.80
2023-01-09T14:03:20.431Z,11.80
2023-01-09T14:05:47.584Z,11.90
2023-01-09T14:08:23.059Z,11.80
2023-01-09T14:11:04.759Z,11.90
2023-01-09T14:13:41.189Z,11.90
2023-01-09T14:16:20.612Z,11.80
2023-01-09T14:19:00.760Z,11.80
2023-01-09T14:21:48.087Z,11.80
2023-01-09T14:24:26.086Z,11.80
2023-01-09T14:26:57.333Z,11.80
2023-01-09T14:29:45.365Z,11.80
2023-01-09T14:32:26.366Z,11.80
2023-01-09T14:35:06.056Z,11.80
2023-01-09T14:37:37.118Z,11.80
2023-01-09T14:40:29.198Z,11.80
2023-01-09T14:43:04.593Z,11.70
2023-01-09T14:45:32.886Z,11.70
2023-01-09T14:48:11.700Z,11.70
2023-01-09T14:50:51.191Z,11.70
2023-01-09T14:53:29.716Z,11.60
2023-01-09T14:55:59.315Z,11.60
2023-01-09T14:58:28.705Z,11.60
2023-01-09T15:01:00.940Z,11.60
2023-01-09T15:03:49.931Z,11.50
2023-01-09T15:06:26.778Z,11.50
2023-01-09T15:08:56.974Z,11.50
2023-01-09T15:11:25.548Z,11.50
2023-01-09T15:13:54.393Z,11.50
2023-01-09T15:16:24.359Z,11.50
2023-01-09T15:18:58.376Z,11.50
2023-01-09T15:21:27.500Z,11.50
2023-01-09T15:23:54.731Z,11.50
2023-01-09T15:26:25.469Z,11.40
2023-01-09T15:28:59.988Z,11.50
2023-01-09T15:31:27.784Z,11.50
2023-01-09T15:33:55.201Z,11.40
2023-01-09T15:36:28.252Z,11.40
2023-01-09T15:38:55.408Z,11.40
2023-01-09T15:41:48.752Z,11.40
2023-01-09T15:44:24.140Z,11.40
2023-01-09T15:46:51.940Z,11.30
2023-01-09T15:49:20.579Z,11.30
2023-01-09T15:51:48.903Z,11.20
2023-01-09T15:54:21.011Z,11.20
2023-01-09T15:56:48.225Z,11.10
2023-01-09T15:59:27.806Z,11.10
2023-01-09T16:02:19.350Z,11.10
2023-01-09T16:04:47.892Z,11.10
2023-01-09T16:07:18.589Z,11.10
2023-01-09T16:09:48.131Z,11.00
2023-01-09T16:12:21.192Z,11.00
2023-01-09T16:15:01.172Z,11.00
2023-01-09T16:17:29.967Z,11.00
2023-01-09T16:20:14.462Z,11.00
2023-01-09T16:22:56.754Z,10.90
2023-01-09T16:25:37.030Z,10.90
2023-01-09T16:30:55.592Z,10.80
2023-01-09T16:33:26.177Z,10.70
2023-01-09T16:35:54.040Z,10.70
2023-01-09T16:38:22.774Z,10.60
2023-01-09T16:41:18.948Z,10.60
2023-01-09T16:43:46.487Z,10.50
2023-01-09T16:46:15.121Z,10.50
2023-01-09T16:48:42.999Z,10.50
2023-01-09T16:51:21.826Z,10.40
2023-01-09T16:53:49.669Z,10.40
2023-01-09T16:56:29.803Z,10.40
2023-01-09T16:58:57.203Z,10.30
2023-01-09T17:01:24.388Z,10.30
2023-01-09T17:03:52.635Z,10.30
2023-01-09T17:06:31.464Z,10.30
2023-01-09T17:08:58.728Z,10.30
2023-01-09T17:11:31.519Z,10.20
2023-01-09T17:14:02.437Z,10.20
2023-01-09T17:16:30.412Z,10.20
2023-01-09T17:18:57.603Z,10.20
2023-01-09T17:21:29.125Z,10.20
2023-01-09T17:24:16.333Z,10.10
2023-01-09T17:27:06.526Z,10.10
2023-01-09T17:29:34.504Z,10.10
2023-01-09T17:32:01.518Z,10.10
2023-01-09T17:34:28.462Z,10.10
2023-01-09T17:36:55.803Z,10.10
2023-01-09T17:39:26.070Z,10.10
2023-01-09T17:41:53.657Z,10.10
2023-01-09T17:44:20.664Z,10.10
2023-01-09T17:46:47.588Z,10.10
2023-01-09T17:49:17.531Z,10.10
2023-01-09T17:51:44.985Z,10.00
2023-01-09T17:54:12.567Z,10.00
2023-01-09T17:56:43.584Z,10.00
2023-01-09T17:59:15.172Z,10.00
2023-01-09T18:01:44.041Z,10.00
2023-01-09T18:04:11.652Z,10.00
2023-01-09T18:06:39.431Z,10.00
2023-01-09T18:09:07.555Z,10.00
2023-01-09T18:11:35.151Z,10.00
2023-01-09T18:14:02.282Z,10.00
2023-01-09T18:16:29.534Z,9.90
2023-01-09T18:19:00.435Z,9.90
2023-01-09T18:21:29.514Z,9.90
2023-01-09T18:23:57.969Z,9.90
2023-01-09T18:26:25.364Z,9.90
2023-01-09T18:28:56.192Z,9.90
2023-01-09T18:31:24.672Z,9.90
2023-01-09T18:33:53.490Z,9.90
2023-01-09T18:36:23.713Z,9.90
2023-01-09T18:38:52.550Z,9.80
2023-01-09T18:41:20.148Z,9.80
2023-01-09T18:43:54.021Z,9.80
2023-01-09T18:46:24.653Z,9.80
2023-01-09T18:48:56.168Z,9.80
2023-01-09T18:51:24.433Z,9.70
2023-01-09T18:53:51.829Z,9.80
2023-01-09T18:56:20.093Z,9.80
2023-01-09T18:58:48.118Z,9.70
2023-01-09T19:01:16.294Z,9.70
2023-01-09T19:03:43.559Z,9.70
2023-01-09T19:06:10.986Z,9.70
2023-01-09T19:08:38.060Z,9.70
2023-01-09T19:11:06.000Z,9.70
2023-01-09T19:13:35.933Z,9.70
2023-01-09T19:16:05.007Z,9.70
2023-01-09T19:18:37.339Z,9.70
2023-01-09T19:21:15.245Z,9.70
2023-01-09T19:23:44.203Z,9.70
2023-01-09T19:26:20.707Z,9.70
2023-01-09T19:28:48.541Z,9.70
2023-01-09T19:31:16.622Z,9.70
2023-01-09T19:33:44.698Z,9.70
2023-01-09T19:36:11.807Z,9.70
2023-01-09T19:38:38.806Z,9.70
2023-01-09T19:41:15.296Z,9.70
2023-01-09T19:43:42.350Z,9.70
2023-01-09T19:46:20.993Z,9.80
2023-01-09T19:48:48.747Z,9.80
2023-01-09T19:51:17.296Z,9.80
2023-01-09T19:53:44.891Z,9.80
2023-01-09T19:56:17.945Z,9.80
2023-01-09T19:58:53.366Z,9.90
2023-01-09T20:01:26.484Z,9.90
2023-01-09T20:03:54.883Z,10.00
2023-01-09T20:06:27.673Z,10.00
2023-01-09T20:08:57.187Z,10.00
2023-01-09T20:11:25.784Z,10.00
2023-01-09T20:13:55.686Z,10.00
2023-01-09T20:16:28.245Z,10.10
2023-01-09T20:19:00.446Z,10.00
2023-01-09T20:21:28.704Z,10.10
2023-01-09T20:23:58.329Z,10.10
2023-01-09T20:26:26.528Z,10.10
2023-01-09T20:28:54.638Z,10.10
2023-01-09T20:31:23.304Z,10.10
2023-01-09T20:33:51.289Z,10.10
2023-01-09T20:36:21.649Z,10.10
2023-01-09T20:38:49.117Z,10.10
2023-01-09T20:41:22.719Z,10.10
2023-01-09T20:43:50.767Z,10.10
2023-01-09T20:46:18.728Z,10.00
2023-01-09T20:48:46.318Z,10.10
2023-01-09T20:51:14.068Z,10.00
2023-01-09T20:53:55.518Z,10.10
2023-01-09T20:56:26.864Z,10.10
2023-01-09T20:58:54.495Z,10.10
2023-01-09T21:01:22.995Z,10.00
2023-01-09T21:03:51.251Z,10.10
2023-01-09T21:06:19.909Z,10.10
2023-01-09T21:08:47.875Z,10.10
2023-01-09T21:11:15.354Z,10.10
2023-01-09T21:13:42.739Z,10.10
2023-01-09T21:16:24.394Z,10.10
2023-01-09T21:18:53.334Z,10.10
2023-01-09T21:21:23.549Z,10.10
2023-01-09T21:23:53.225Z,10.20
2023-01-09T21:26:22.713Z,10.10
2023-01-09T21:28:54.522Z,10.20
2023-01-09T21:31:34.439Z,10.20
2023-01-09T21:34:04.997Z,10.10
2023-01-09T21:36:32.575Z,10.20
2023-01-09T21:38:59.880Z,10.10
2023-01-09T21:41:45.689Z,10.10
2023-01-09T21:44:31.827Z,10.10
2023-01-09T21:47:02.973Z,10.10
2023-01-09T21:49:34.867Z,10.10
2023-01-09T21:52:06.033Z,10.00
2023-01-09T21:54:33.864Z,10.00
2023-01-09T21:57:01.710Z,10.00
2023-01-09T21:59:29.420Z,9.90
2023-01-09T22:01:57.214Z,9.90
2023-01-09T22:04:26.577Z,9.90
2023-01-09T22:06:54.034Z,9.90
2023-01-09T22:09:21.367Z,9.90
2023-01-09T22:11:48.405Z,9.90
2023-01-09T22:14:17.965Z,9.90
2023-01-09T22:16:46.237Z,9.80
2023-01-09T22:19:14.338Z,9.80
2023-01-09T22:21:41.281Z,9.80
2023-01-09T22:24:09.418Z,9.80
2023-01-09T22:26:36.578Z,9.70
2023-01-09T22:29:03.578Z,9.70
2023-01-09T22:31:32.808Z,9.70
2023-01-09T22:34:02.428Z,9.70
2023-01-09T22:36:31.212Z,9.70
2023-01-09T22:39:00.163Z,9.60
2023-01-09T22:41:29.636Z,9.60
2023-01-09T22:43:56.876Z,9.60
2023-01-09T22:46:24.163Z,9.60
2023-01-09T22:48:51.695Z,9.50
2023-01-09T22:51:20.981Z,9.50
2023-01-09T22:53:48.495Z,9.50
2023-01-09T22:56:18.573Z,9.50
2023-01-09T22:58:54.484Z,9.50
2023-01-09T23:01:22.068Z,9.40
2023-01-09T23:03:49.027Z,9.40
2023-01-09T23:06:21.678Z,9.40
2023-01-09T23:08:51.014Z,9.40
2023-01-09T23:11:42.775Z,9.30
2023-01-09T23:14:11.098Z,9.30
2023-01-09T23:16:38.316Z,9.30
2023-01-09T23:19:14.603Z,9.30
2023-01-09T23:21:43.022Z,9.30
2023-01-09T23:24:10.072Z,9.30
2023-01-09T23:26:39.300Z,9.30
2023-01-09T23:29:07.927Z,9.30
2023-01-09T23:31:35.929Z,9.30
2023-01-09T23:34:04.566Z,9.30
2023-01-09T23:36:31.653Z,9.30
2023-01-09T23:38:59.730Z,9.20
2023-01-09T23:41:45.711Z,9.20
2023-01-09T23:44:12.820Z,9.20
2023-01-09T23:46:39.670Z,9.20
2023-01-09T23:49:06.911Z,9.20
2023-01-09T23:51:33.813Z,9.20
2023-01-09T23:54:00.913Z,9.20
2023-01-09T23:56:30.640Z,9.20
2023-01-09T23:58:58.160Z,9.20
